sensor_id;sensor_type;location;lat;lon;timestamp;P1;durP1;ratioP1;P2;durP2;ratioP2
71763;SDS011;59602;52.142;5.408;2022-12-29T00:01:41;1.70;;;0.50;;
71763;SDS011;59602;52.142;5.408;2022-12-29T00:04:09;2.40;;;0.55;;
71763;SDS011;59602;52.142;5.408;2022-12-29T00:06:41;1.83;;;0.67;;
71763;SDS011;59602;52.142;5.408;2022-12-29T00:09:10;1.30;;;0.50;;
71763;SDS011;59602;52.142;5.408;2022-12-29T00:11:38;2.40;;;0.70;;
71763;SDS011;59602;52.142;5.408;2022-12-29T00:14:05;1.92;;;0.50;;
71763;SDS011;59602;52.142;5.408;2022-12-29T00:16:51;1.80;;;0.60;;
71763;SDS011;59602;52.142;5.408;2022-12-29T00:19:18;1.57;;;0.50;;
71763;SDS011;59602;52.142;5.408;2022-12-29T00:22:04;2.72;;;0.50;;
71763;SDS011;59602;52.142;5.408;2022-12-29T00:24:49;2.17;;;0.43;;
71763;SDS011;59602;52.142;5.408;2022-12-29T00:27:28;1.77;;;0.30;;
71763;SDS011;59602;52.142;5.408;2022-12-29T00:30:15;1.67;;;0.50;;
71763;SDS011;59602;52.142;5.408;2022-12-29T00:33:09;1.70;;;0.50;;
71763;SDS011;59602;52.142;5.408;2022-12-29T00:35:56;2.58;;;0.70;;
71763;SDS011;59602;52.142;5.408;2022-12-29T00:38:27;2.25;;;0.60;;
71763;SDS011;59602;52.142;5.408;2022-12-29T00:41:13;2.22;;;0.57;;
71763;SDS011;59602;52.142;5.408;2022-12-29T00:43:59;1.88;;;0.40;;
71763;SDS011;59602;52.142;5.408;2022-12-29T00:46:32;2.23;;;0.50;;
71763;SDS011;59602;52.142;5.408;2022-12-29T00:49:00;1.92;;;0.50;;
71763;SDS011;59602;52.142;5.408;2022-12-29T00:51:46;1.77;;;0.40;;
71763;SDS011;59602;52.142;5.408;2022-12-29T00:54:14;1.75;;;0.47;;
71763;SDS011;59602;52.142;5.408;2022-12-29T00:56:43;2.05;;;0.40;;
71763;SDS011;59602;52.142;5.408;2022-12-29T00:59:12;1.20;;;0.30;;
71763;SDS011;59602;52.142;5.408;2022-12-29T01:01:39;1.67;;;0.45;;
71763;SDS011;59602;52.142;5.408;2022-12-29T01:04:06;1.02;;;0.32;;
71763;SDS011;59602;52.142;5.408;2022-12-29T01:06:33;1.40;;;0.40;;
71763;SDS011;59602;52.142;5.408;2022-12-29T01:09:01;1.65;;;0.30;;
71763;SDS011;59602;52.142;5.408;2022-12-29T01:11:46;2.77;;;0.30;;
71763;SDS011;59602;52.142;5.408;2022-12-29T01:14:12;2.25;;;0.25;;
71763;SDS011;59602;52.142;5.408;2022-12-29T01:16:39;1.02;;;0.22;;
71763;SDS011;59602;52.142;5.408;2022-12-29T01:19:06;2.97;;;0.47;;
71763;SDS011;59602;52.142;5.408;2022-12-29T01:21:32;1.65;;;0.30;;
71763;SDS011;59602;52.142;5.408;2022-12-29T01:23:59;2.40;;;0.20;;
71763;SDS011;59602;52.142;5.408;2022-12-29T01:26:26;1.17;;;0.20;;
71763;SDS011;59602;52.142;5.408;2022-12-29T01:28:52;1.35;;;0.30;;
71763;SDS011;59602;52.142;5.408;2022-12-29T01:31:19;1.75;;;0.30;;
71763;SDS011;59602;52.142;5.408;2022-12-29T01:33:46;1.90;;;0.30;;
71763;SDS011;59602;52.142;5.408;2022-12-29T01:36:13;2.37;;;0.37;;
71763;SDS011;59602;52.142;5.408;2022-12-29T01:38:42;1.20;;;0.30;;
71763;SDS011;59602;52.142;5.408;2022-12-29T01:41:10;1.50;;;0.77;;
71763;SDS011;59602;52.142;5.408;2022-12-29T01:43:40;0.80;;;0.20;;
71763;SDS011;59602;52.142;5.408;2022-12-29T01:46:22;2.92;;;0.20;;
71763;SDS011;59602;52.142;5.408;2022-12-29T01:48:53;1.47;;;0.20;;
71763;SDS011;59602;52.142;5.408;2022-12-29T01:51:36;1.85;;;0.30;;
71763;SDS011;59602;52.142;5.408;2022-12-29T01:54:09;1.05;;;0.30;;
71763;SDS011;59602;52.142;5.408;2022-12-29T01:56:40;1.90;;;0.30;;
71763;SDS011;59602;52.142;5.408;2022-12-29T01:59:08;1.58;;;0.20;;
71763;SDS011;59602;52.142;5.408;2022-12-29T02:01:38;0.87;;;0.30;;
71763;SDS011;59602;52.142;5.408;2022-12-29T02:04:05;3.53;;;0.30;;
71763;SDS011;59602;52.142;5.408;2022-12-29T02:06:33;2.65;;;0.50;;
71763;SDS011;59602;52.142;5.408;2022-12-29T02:09:04;0.98;;;0.30;;
71763;SDS011;59602;52.142;5.408;2022-12-29T02:11:31;1.40;;;0.30;;
71763;SDS011;59602;52.142;5.408;2022-12-29T02:13:58;1.70;;;0.30;;
71763;SDS011;59602;52.142;5.408;2022-12-29T02:16:30;0.90;;;0.30;;
71763;SDS011;59602;52.142;5.408;2022-12-29T02:19:41;1.45;;;0.30;;
71763;SDS011;59602;52.142;5.408;2022-12-29T02:27:50;2.27;;;0.30;;
71763;SDS011;59602;52.142;5.408;2022-12-29T02:30:34;2.17;;;0.28;;
71763;SDS011;59602;52.142;5.408;2022-12-29T02:41:04;1.60;;;0.30;;
71763;SDS011;59602;52.142;5.408;2022-12-29T02:46:18;1.42;;;0.40;;
71763;SDS011;59602;52.142;5.408;2022-12-29T02:48:52;1.50;;;0.30;;
71763;SDS011;59602;52.142;5.408;2022-12-29T02:51:29;2.60;;;0.20;;
71763;SDS011;59602;52.142;5.408;2022-12-29T02:54:02;1.03;;;0.10;;
71763;SDS011;59602;52.142;5.408;2022-12-29T02:56:48;1.38;;;0.20;;
71763;SDS011;59602;52.142;5.408;2022-12-29T02:59:15;1.00;;;0.10;;
71763;SDS011;59602;52.142;5.408;2022-12-29T03:01:53;1.63;;;0.25;;
71763;SDS011;59602;52.142;5.408;2022-12-29T03:07:30;0.93;;;0.10;;
71763;SDS011;59602;52.142;5.408;2022-12-29T03:12:54;0.25;;;0.05;;
71763;SDS011;59602;52.142;5.408;2022-12-29T03:15:50;1.85;;;0.20;;
71763;SDS011;59602;52.142;5.408;2022-12-29T03:21:05;1.03;;;0.10;;
71763;SDS011;59602;52.142;5.408;2022-12-29T03:23:37;0.95;;;0.10;;
71763;SDS011;59602;52.142;5.408;2022-12-29T03:26:08;1.13;;;0.10;;
71763;SDS011;59602;52.142;5.408;2022-12-29T03:28:40;1.05;;;0.20;;
71763;SDS011;59602;52.142;5.408;2022-12-29T03:31:12;1.88;;;0.20;;
71763;SDS011;59602;52.142;5.408;2022-12-29T03:33:40;0.60;;;0.10;;
71763;SDS011;59602;52.142;5.408;2022-12-29T03:36:09;2.95;;;0.10;;
71763;SDS011;59602;52.142;5.408;2022-12-29T03:38:46;0.57;;;0.10;;
71763;SDS011;59602;52.142;5.408;2022-12-29T03:41:20;1.25;;;0.10;;
71763;SDS011;59602;52.142;5.408;2022-12-29T03:43:52;3.58;;;0.10;;
71763;SDS011;59602;52.142;5.408;2022-12-29T03:46:18;1.93;;;0.20;;
71763;SDS011;59602;52.142;5.408;2022-12-29T03:48:45;2.00;;;0.43;;
71763;SDS011;59602;52.142;5.408;2022-12-29T03:51:11;0.50;;;0.10;;
71763;SDS011;59602;52.142;5.408;2022-12-29T03:53:39;1.83;;;0.22;;
71763;SDS011;59602;52.142;5.408;2022-12-29T03:56:06;2.05;;;0.10;;
71763;SDS011;59602;52.142;5.408;2022-12-29T03:58:32;2.77;;;0.20;;
71763;SDS011;59602;52.142;5.408;2022-12-29T04:00:59;1.90;;;0.20;;
71763;SDS011;59602;52.142;5.408;2022-12-29T04:03:26;1.58;;;0.15;;
71763;SDS011;59602;52.142;5.408;2022-12-29T04:05:53;1.23;;;0.30;;
71763;SDS011;59602;52.142;5.408;2022-12-29T04:08:19;2.55;;;0.20;;
71763;SDS011;59602;52.142;5.408;2022-12-29T04:10:47;1.73;;;0.30;;
71763;SDS011;59602;52.142;5.408;2022-12-29T04:13:15;2.85;;;0.20;;
71763;SDS011;59602;52.142;5.408;2022-12-29T04:15:43;2.05;;;0.20;;
71763;SDS011;59602;52.142;5.408;2022-12-29T04:18:12;1.58;;;0.20;;
71763;SDS011;59602;52.142;5.408;2022-12-29T04:20:39;2.47;;;0.20;;
71763;SDS011;59602;52.142;5.408;2022-12-29T04:23:24;1.93;;;0.10;;
71763;SDS011;59602;52.142;5.408;2022-12-29T04:25:51;3.40;;;0.20;;
71763;SDS011;59602;52.142;5.408;2022-12-29T04:28:18;2.42;;;0.30;;
71763;SDS011;59602;52.142;5.408;2022-12-29T04:30:46;2.95;;;0.25;;
71763;SDS011;59602;52.142;5.408;2022-12-29T04:33:14;1.67;;;0.10;;
71763;SDS011;59602;52.142;5.408;2022-12-29T04:35:41;1.90;;;0.20;;
71763;SDS011;59602;52.142;5.408;2022-12-29T04:38:09;2.50;;;0.20;;
71763;SDS011;59602;52.142;5.408;2022-12-29T04:40:38;3.35;;;0.20;;
71763;SDS011;59602;52.142;5.408;2022-12-29T04:43:06;5.10;;;0.35;;
71763;SDS011;59602;52.142;5.408;2022-12-29T04:45:33;3.42;;;0.20;;
71763;SDS011;59602;52.142;5.408;2022-12-29T04:48:00;3.70;;;0.10;;
71763;SDS011;59602;52.142;5.408;2022-12-29T04:50:26;3.10;;;0.28;;
71763;SDS011;59602;52.142;5.408;2022-12-29T04:52:53;2.25;;;0.10;;
71763;SDS011;59602;52.142;5.408;2022-12-29T04:55:20;4.22;;;0.30;;
71763;SDS011;59602;52.142;5.408;2022-12-29T04:57:47;5.38;;;0.10;;
71763;SDS011;59602;52.142;5.408;2022-12-29T05:00:13;2.03;;;0.20;;
71763;SDS011;59602;52.142;5.408;2022-12-29T05:02:40;3.92;;;0.10;;
71763;SDS011;59602;52.142;5.408;2022-12-29T05:05:07;4.72;;;0.20;;
71763;SDS011;59602;52.142;5.408;2022-12-29T05:07:34;1.52;;;0.20;;
71763;SDS011;59602;52.142;5.408;2022-12-29T05:10:02;2.60;;;0.25;;
71763;SDS011;59602;52.142;5.408;2022-12-29T05:12:30;4.43;;;0.20;;
71763;SDS011;59602;52.142;5.408;2022-12-29T05:14:57;1.90;;;0.10;;
71763;SDS011;59602;52.142;5.408;2022-12-29T05:17:25;5.03;;;0.20;;
71763;SDS011;59602;52.142;5.408;2022-12-29T05:19:52;5.13;;;0.40;;
71763;SDS011;59602;52.142;5.408;2022-12-29T05:22:18;3.47;;;0.15;;
71763;SDS011;59602;52.142;5.408;2022-12-29T05:24:45;5.43;;;0.30;;
71763;SDS011;59602;52.142;5.408;2022-12-29T05:27:12;6.53;;;0.10;;
71763;SDS011;59602;52.142;5.408;2022-12-29T05:29:39;5.20;;;0.28;;
71763;SDS011;59602;52.142;5.408;2022-12-29T05:32:06;7.53;;;0.20;;
71763;SDS011;59602;52.142;5.408;2022-12-29T05:34:32;8.90;;;0.55;;
71763;SDS011;59602;52.142;5.408;2022-12-29T05:36:59;4.83;;;0.27;;
71763;SDS011;59602;52.142;5.408;2022-12-29T05:39:26;5.50;;;0.75;;
71763;SDS011;59602;52.142;5.408;2022-12-29T05:41:52;5.90;;;0.40;;
71763;SDS011;59602;52.142;5.408;2022-12-29T05:44:19;3.95;;;0.10;;
71763;SDS011;59602;52.142;5.408;2022-12-29T05:46:45;7.95;;;0.30;;
71763;SDS011;59602;52.142;5.408;2022-12-29T05:49:12;4.97;;;0.20;;
71763;SDS011;59602;52.142;5.408;2022-12-29T05:51:40;4.25;;;0.20;;
71763;SDS011;59602;52.142;5.408;2022-12-29T05:54:06;5.72;;;0.10;;
71763;SDS011;59602;52.142;5.408;2022-12-29T05:56:33;6.68;;;0.20;;
71763;SDS011;59602;52.142;5.408;2022-12-29T05:58:59;3.22;;;0.60;;
71763;SDS011;59602;52.142;5.408;2022-12-29T06:01:26;1.90;;;0.17;;
71763;SDS011;59602;52.142;5.408;2022-12-29T06:03:53;5.05;;;0.25;;
71763;SDS011;59602;52.142;5.408;2022-12-29T06:06:20;6.05;;;0.20;;
71763;SDS011;59602;52.142;5.408;2022-12-29T06:08:47;4.00;;;0.17;;
71763;SDS011;59602;52.142;5.408;2022-12-29T06:11:13;7.10;;;0.43;;
71763;SDS011;59602;52.142;5.408;2022-12-29T06:13:40;6.63;;;0.30;;
71763;SDS011;59602;52.142;5.408;2022-12-29T06:16:07;5.90;;;0.50;;
71763;SDS011;59602;52.142;5.408;2022-12-29T06:18:33;3.05;;;0.20;;
71763;SDS011;59602;52.142;5.408;2022-12-29T06:21:00;6.50;;;0.35;;
71763;SDS011;59602;52.142;5.408;2022-12-29T06:23:28;3.83;;;0.30;;
71763;SDS011;59602;52.142;5.408;2022-12-29T06:25:56;4.73;;;0.23;;
71763;SDS011;59602;52.142;5.408;2022-12-29T06:28:23;6.25;;;0.43;;
71763;SDS011;59602;52.142;5.408;2022-12-29T06:30:50;4.30;;;0.20;;
71763;SDS011;59602;52.142;5.408;2022-12-29T06:33:16;8.85;;;0.40;;
71763;SDS011;59602;52.142;5.408;2022-12-29T06:35:43;9.57;;;0.30;;
71763;SDS011;59602;52.142;5.408;2022-12-29T06:38:10;4.47;;;0.20;;
71763;SDS011;59602;52.142;5.408;2022-12-29T06:40:36;6.05;;;0.30;;
71763;SDS011;59602;52.142;5.408;2022-12-29T06:43:03;7.38;;;0.30;;
71763;SDS011;59602;52.142;5.408;2022-12-29T06:45:30;5.93;;;0.25;;
71763;SDS011;59602;52.142;5.408;2022-12-29T06:47:57;3.50;;;0.47;;
71763;SDS011;59602;52.142;5.408;2022-12-29T06:50:24;3.10;;;0.23;;
71763;SDS011;59602;52.142;5.408;2022-12-29T06:52:51;7.00;;;0.20;;
71763;SDS011;59602;52.142;5.408;2022-12-29T06:55:17;4.35;;;0.40;;
71763;SDS011;59602;52.142;5.408;2022-12-29T06:57:44;5.13;;;0.20;;
71763;SDS011;59602;52.142;5.408;2022-12-29T07:00:10;3.85;;;0.10;;
71763;SDS011;59602;52.142;5.408;2022-12-29T07:02:40;9.40;;;0.60;;
71763;SDS011;59602;52.142;5.408;2022-12-29T07:05:07;6.72;;;0.50;;
71763;SDS011;59602;52.142;5.408;2022-12-29T07:07:35;5.18;;;0.55;;
71763;SDS011;59602;52.142;5.408;2022-12-29T07:10:02;7.32;;;0.20;;
71763;SDS011;59602;52.142;5.408;2022-12-29T07:12:29;6.22;;;0.40;;
71763;SDS011;59602;52.142;5.408;2022-12-29T07:14:56;7.97;;;0.47;;
71763;SDS011;59602;52.142;5.408;2022-12-29T07:17:22;4.78;;;0.10;;
71763;SDS011;59602;52.142;5.408;2022-12-29T07:19:49;3.42;;;0.20;;
71763;SDS011;59602;52.142;5.408;2022-12-29T07:22:15;3.90;;;0.50;;
71763;SDS011;59602;52.142;5.408;2022-12-29T07:24:42;5.50;;;0.40;;
71763;SDS011;59602;52.142;5.408;2022-12-29T07:27:09;4.67;;;0.20;;
71763;SDS011;59602;52.142;5.408;2022-12-29T07:29:36;5.97;;;0.70;;
71763;SDS011;59602;52.142;5.408;2022-12-29T07:32:04;5.85;;;0.57;;
71763;SDS011;59602;52.142;5.408;2022-12-29T07:34:30;7.15;;;0.30;;
71763;SDS011;59602;52.142;5.408;2022-12-29T07:36:57;4.30;;;0.35;;
71763;SDS011;59602;52.142;5.408;2022-12-29T07:39:23;6.43;;;0.20;;
71763;SDS011;59602;52.142;5.408;2022-12-29T07:41:52;7.20;;;0.40;;
71763;SDS011;59602;52.142;5.408;2022-12-29T07:44:26;4.07;;;0.40;;
71763;SDS011;59602;52.142;5.408;2022-12-29T07:46:52;5.70;;;0.28;;
71763;SDS011;59602;52.142;5.408;2022-12-29T07:49:23;4.93;;;0.40;;
71763;SDS011;59602;52.142;5.408;2022-12-29T07:51:50;2.20;;;0.23;;
71763;SDS011;59602;52.142;5.408;2022-12-29T07:54:17;6.28;;;0.30;;
71763;SDS011;59602;52.142;5.408;2022-12-29T07:56:45;4.75;;;0.20;;
71763;SDS011;59602;52.142;5.408;2022-12-29T07:59:13;4.90;;;0.20;;
71763;SDS011;59602;52.142;5.408;2022-12-29T08:01:39;5.35;;;0.30;;
71763;SDS011;59602;52.142;5.408;2022-12-29T08:04:06;8.00;;;0.80;;
71763;SDS011;59602;52.142;5.408;2022-12-29T08:06:33;2.20;;;0.20;;
71763;SDS011;59602;52.142;5.408;2022-12-29T08:09:00;5.47;;;0.30;;
71763;SDS011;59602;52.142;5.408;2022-12-29T08:11:40;3.63;;;0.17;;
71763;SDS011;59602;52.142;5.408;2022-12-29T08:14:06;3.40;;;0.20;;
71763;SDS011;59602;52.142;5.408;2022-12-29T08:16:33;5.17;;;0.30;;
71763;SDS011;59602;52.142;5.408;2022-12-29T08:19:01;8.05;;;0.60;;
71763;SDS011;59602;52.142;5.408;2022-12-29T08:21:31;4.03;;;0.32;;
71763;SDS011;59602;52.142;5.408;2022-12-29T08:23:58;6.57;;;0.40;;
71763;SDS011;59602;52.142;5.408;2022-12-29T08:26:25;6.28;;;0.73;;
71763;SDS011;59602;52.142;5.408;2022-12-29T08:28:52;5.77;;;0.30;;
71763;SDS011;59602;52.142;5.408;2022-12-29T08:31:20;5.47;;;0.57;;
71763;SDS011;59602;52.142;5.408;2022-12-29T08:33:47;7.18;;;0.40;;
71763;SDS011;59602;52.142;5.408;2022-12-29T08:36:14;5.78;;;0.35;;
71763;SDS011;59602;52.142;5.408;2022-12-29T08:38:41;5.53;;;0.20;;
71763;SDS011;59602;52.142;5.408;2022-12-29T08:41:07;6.63;;;0.60;;
71763;SDS011;59602;52.142;5.408;2022-12-29T08:43:34;6.68;;;0.17;;
71763;SDS011;59602;52.142;5.408;2022-12-29T08:46:01;9.05;;;0.40;;
71763;SDS011;59602;52.142;5.408;2022-12-29T08:48:28;5.30;;;0.43;;
71763;SDS011;59602;52.142;5.408;2022-12-29T08:50:54;3.70;;;0.20;;
71763;SDS011;59602;52.142;5.408;2022-12-29T08:53:21;6.63;;;0.20;;
71763;SDS011;59602;52.142;5.408;2022-12-29T08:55:54;5.45;;;0.30;;
71763;SDS011;59602;52.142;5.408;2022-12-29T08:58:30;3.83;;;0.20;;
71763;SDS011;59602;52.142;5.408;2022-12-29T09:00:57;3.80;;;0.30;;
71763;SDS011;59602;52.142;5.408;2022-12-29T09:03:25;4.40;;;0.20;;
71763;SDS011;59602;52.142;5.408;2022-12-29T09:06:12;7.70;;;0.77;;
71763;SDS011;59602;52.142;5.408;2022-12-29T09:08:39;4.90;;;0.22;;
71763;SDS011;59602;52.142;5.408;2022-12-29T09:11:10;5.47;;;0.32;;
71763;SDS011;59602;52.142;5.408;2022-12-29T09:13:40;3.42;;;0.20;;
71763;SDS011;59602;52.142;5.408;2022-12-29T09:16:07;5.10;;;0.30;;
71763;SDS011;59602;52.142;5.408;2022-12-29T09:18:34;7.40;;;0.30;;
71763;SDS011;59602;52.142;5.408;2022-12-29T09:21:01;8.40;;;0.20;;
71763;SDS011;59602;52.142;5.408;2022-12-29T09:23:29;4.78;;;0.30;;
71763;SDS011;59602;52.142;5.408;2022-12-29T09:25:56;4.30;;;0.28;;
71763;SDS011;59602;52.142;5.408;2022-12-29T09:28:23;4.22;;;0.43;;
71763;SDS011;59602;52.142;5.408;2022-12-29T09:30:50;6.20;;;0.50;;
71763;SDS011;59602;52.142;5.408;2022-12-29T09:33:17;8.88;;;0.40;;
71763;SDS011;59602;52.142;5.408;2022-12-29T09:35:45;4.03;;;0.20;;
71763;SDS011;59602;52.142;5.408;2022-12-29T09:38:16;9.32;;;0.40;;
71763;SDS011;59602;52.142;5.408;2022-12-29T09:40:44;6.65;;;0.50;;
71763;SDS011;59602;52.142;5.408;2022-12-29T09:43:29;7.23;;;0.47;;
71763;SDS011;59602;52.142;5.408;2022-12-29T09:46:23;5.20;;;0.35;;
71763;SDS011;59602;52.142;5.408;2022-12-29T09:48:55;4.55;;;0.25;;
71763;SDS011;59602;52.142;5.408;2022-12-29T09:51:26;5.35;;;0.30;;
71763;SDS011;59602;52.142;5.408;2022-12-29T09:54:00;4.28;;;0.32;;
71763;SDS011;59602;52.142;5.408;2022-12-29T09:56:42;4.37;;;0.47;;
71763;SDS011;59602;52.142;5.408;2022-12-29T09:59:13;6.78;;;0.50;;
71763;SDS011;59602;52.142;5.408;2022-12-29T10:01:46;4.32;;;0.40;;
71763;SDS011;59602;52.142;5.408;2022-12-29T10:04:21;5.32;;;0.50;;
71763;SDS011;59602;52.142;5.408;2022-12-29T10:06:54;3.67;;;0.32;;
71763;SDS011;59602;52.142;5.408;2022-12-29T10:09:56;3.97;;;0.20;;
71763;SDS011;59602;52.142;5.408;2022-12-29T10:17:34;5.35;;;0.52;;
71763;SDS011;59602;52.142;5.408;2022-12-29T10:20:17;3.95;;;0.25;;
71763;SDS011;59602;52.142;5.408;2022-12-29T10:22:56;6.27;;;0.50;;
71763;SDS011;59602;52.142;5.408;2022-12-29T10:25:28;4.13;;;0.20;;
71763;SDS011;59602;52.142;5.408;2022-12-29T10:27:59;5.78;;;0.30;;
71763;SDS011;59602;52.142;5.408;2022-12-29T10:30:29;3.05;;;0.30;;
71763;SDS011;59602;52.142;5.408;2022-12-29T10:33:01;6.25;;;0.60;;
71763;SDS011;59602;52.142;5.408;2022-12-29T10:35:32;5.13;;;0.20;;
71763;SDS011;59602;52.142;5.408;2022-12-29T10:38:11;5.25;;;0.30;;
71763;SDS011;59602;52.142;5.408;2022-12-29T10:40:50;5.00;;;0.30;;
71763;SDS011;59602;52.142;5.408;2022-12-29T10:43:26;1.73;;;0.35;;
71763;SDS011;59602;52.142;5.408;2022-12-29T10:45:56;5.32;;;0.30;;
71763;SDS011;59602;52.142;5.408;2022-12-29T10:48:27;3.57;;;0.43;;
71763;SDS011;59602;52.142;5.408;2022-12-29T10:50:58;3.35;;;0.40;;
71763;SDS011;59602;52.142;5.408;2022-12-29T10:53:32;3.85;;;0.20;;
71763;SDS011;59602;52.142;5.408;2022-12-29T10:56:25;5.38;;;0.50;;
71763;SDS011;59602;52.142;5.408;2022-12-29T10:58:58;7.38;;;0.40;;
71763;SDS011;59602;52.142;5.408;2022-12-29T11:01:34;5.70;;;0.40;;
71763;SDS011;59602;52.142;5.408;2022-12-29T11:06:42;6.32;;;0.43;;
71763;SDS011;59602;52.142;5.408;2022-12-29T11:09:12;7.22;;;0.60;;
71763;SDS011;59602;52.142;5.408;2022-12-29T11:11:42;8.88;;;0.40;;
71763;SDS011;59602;52.142;5.408;2022-12-29T11:14:12;6.80;;;0.87;;
71763;SDS011;59602;52.142;5.408;2022-12-29T11:16:44;5.47;;;0.52;;
71763;SDS011;59602;52.142;5.408;2022-12-29T11:19:23;6.57;;;0.60;;
71763;SDS011;59602;52.142;5.408;2022-12-29T11:21:51;8.43;;;1.02;;
71763;SDS011;59602;52.142;5.408;2022-12-29T11:24:21;7.78;;;0.93;;
71763;SDS011;59602;52.142;5.408;2022-12-29T11:26:53;5.57;;;0.70;;
71763;SDS011;59602;52.142;5.408;2022-12-29T11:29:40;8.18;;;0.88;;
71763;SDS011;59602;52.142;5.408;2022-12-29T11:32:16;7.60;;;0.85;;
71763;SDS011;59602;52.142;5.408;2022-12-29T11:34:53;10.38;;;0.50;;
71763;SDS011;59602;52.142;5.408;2022-12-29T11:37:27;8.02;;;0.80;;
71763;SDS011;59602;52.142;5.408;2022-12-29T11:45:06;9.27;;;0.85;;
71763;SDS011;59602;52.142;5.408;2022-12-29T11:47:59;13.00;;;1.00;;
71763;SDS011;59602;52.142;5.408;2022-12-29T11:51:21;7.78;;;0.80;;
71763;SDS011;59602;52.142;5.408;2022-12-29T11:54:02;7.33;;;0.47;;
71763;SDS011;59602;52.142;5.408;2022-12-29T11:56:42;7.10;;;0.93;;
71763;SDS011;59602;52.142;5.408;2022-12-29T11:59:41;7.53;;;1.08;;
71763;SDS011;59602;52.142;5.408;2022-12-29T12:02:20;7.32;;;0.60;;
71763;SDS011;59602;52.142;5.408;2022-12-29T12:04:59;6.93;;;1.20;;
71763;SDS011;59602;52.142;5.408;2022-12-29T12:07:43;5.10;;;0.57;;
71763;SDS011;59602;52.142;5.408;2022-12-29T12:10:19;7.25;;;0.30;;
71763;SDS011;59602;52.142;5.408;2022-12-29T12:12:58;8.98;;;0.70;;
71763;SDS011;59602;52.142;5.408;2022-12-29T12:15:34;10.18;;;0.93;;
71763;SDS011;59602;52.142;5.408;2022-12-29T12:20:52;8.87;;;0.50;;
71763;SDS011;59602;52.142;5.408;2022-12-29T12:23:28;6.65;;;0.68;;
71763;SDS011;59602;52.142;5.408;2022-12-29T12:26:02;9.73;;;0.77;;
71763;SDS011;59602;52.142;5.408;2022-12-29T12:28:40;4.95;;;0.57;;
71763;SDS011;59602;52.142;5.408;2022-12-29T12:31:17;8.55;;;0.80;;
71763;SDS011;59602;52.142;5.408;2022-12-29T12:33:53;9.80;;;0.50;;
71763;SDS011;59602;52.142;5.408;2022-12-29T12:36:36;12.20;;;0.90;;
71763;SDS011;59602;52.142;5.408;2022-12-29T12:39:24;9.45;;;0.85;;
71763;SDS011;59602;52.142;5.408;2022-12-29T12:44:36;6.35;;;0.47;;
71763;SDS011;59602;52.142;5.408;2022-12-29T12:52:33;17.55;;;1.10;;
71763;SDS011;59602;52.142;5.408;2022-12-29T13:00:33;10.90;;;0.80;;
71763;SDS011;59602;52.142;5.408;2022-12-29T13:03:11;14.80;;;1.02;;
71763;SDS011;59602;52.142;5.408;2022-12-29T13:05:57;9.05;;;0.60;;
71763;SDS011;59602;52.142;5.408;2022-12-29T13:08:48;9.35;;;0.80;;
71763;SDS011;59602;52.142;5.408;2022-12-29T13:16:46;8.82;;;0.55;;
71763;SDS011;59602;52.142;5.408;2022-12-29T13:19:34;7.03;;;0.38;;
71763;SDS011;59602;52.142;5.408;2022-12-29T13:22:09;7.88;;;0.70;;
71763;SDS011;59602;52.142;5.408;2022-12-29T13:25:00;7.20;;;0.55;;
71763;SDS011;59602;52.142;5.408;2022-12-29T13:27:38;8.23;;;0.80;;
71763;SDS011;59602;52.142;5.408;2022-12-29T13:30:17;11.35;;;0.75;;
71763;SDS011;59602;52.142;5.408;2022-12-29T13:33:01;8.18;;;0.60;;
71763;SDS011;59602;52.142;5.408;2022-12-29T13:39:13;12.50;;;0.57;;
71763;SDS011;59602;52.142;5.408;2022-12-29T13:44:22;6.05;;;0.80;;
71763;SDS011;59602;52.142;5.408;2022-12-29T13:54:07;5.38;;;0.90;;
71763;SDS011;59602;52.142;5.408;2022-12-29T13:56:50;5.87;;;0.63;;
71763;SDS011;59602;52.142;5.408;2022-12-29T14:04:41;10.07;;;1.40;;
71763;SDS011;59602;52.142;5.408;2022-12-29T14:07:22;10.30;;;1.00;;
71763;SDS011;59602;52.142;5.408;2022-12-29T14:09:50;10.60;;;0.77;;
71763;SDS011;59602;52.142;5.408;2022-12-29T14:12:28;10.23;;;0.80;;
71763;SDS011;59602;52.142;5.408;2022-12-29T14:15:03;5.07;;;0.43;;
71763;SDS011;59602;52.142;5.408;2022-12-29T14:17:30;6.57;;;0.47;;
71763;SDS011;59602;52.142;5.408;2022-12-29T14:19:56;5.10;;;0.50;;
71763;SDS011;59602;52.142;5.408;2022-12-29T14:22:25;4.37;;;0.40;;
71763;SDS011;59602;52.142;5.408;2022-12-29T14:24:58;8.02;;;0.50;;
71763;SDS011;59602;52.142;5.408;2022-12-29T14:29:55;3.40;;;0.20;;
71763;SDS011;59602;52.142;5.408;2022-12-29T14:34:52;1.73;;;0.10;;
71763;SDS011;59602;52.142;5.408;2022-12-29T14:37:34;1.23;;;0.10;;
71763;SDS011;59602;52.142;5.408;2022-12-29T14:40:04;2.33;;;0.10;;
71763;SDS011;59602;52.142;5.408;2022-12-29T14:42:59;3.28;;;0.10;;
71763;SDS011;59602;52.142;5.408;2022-12-29T14:45:29;2.78;;;0.20;;
71763;SDS011;59602;52.142;5.408;2022-12-29T14:47:58;2.80;;;0.20;;
71763;SDS011;59602;52.142;5.408;2022-12-29T14:53:10;1.77;;;0.10;;
71763;SDS011;59602;52.142;5.408;2022-12-29T14:56:10;5.50;;;0.80;;
71763;SDS011;59602;52.142;5.408;2022-12-29T15:03:57;2.42;;;0.20;;
71763;SDS011;59602;52.142;5.408;2022-12-29T15:06:29;3.90;;;0.25;;
71763;SDS011;59602;52.142;5.408;2022-12-29T15:09:10;5.72;;;0.30;;
71763;SDS011;59602;52.142;5.408;2022-12-29T15:11:48;2.67;;;0.25;;
71763;SDS011;59602;52.142;5.408;2022-12-29T15:16:57;3.78;;;0.20;;
71763;SDS011;59602;52.142;5.408;2022-12-29T15:19:26;2.42;;;0.20;;
71763;SDS011;59602;52.142;5.408;2022-12-29T15:21:54;3.70;;;0.30;;
71763;SDS011;59602;52.142;5.408;2022-12-29T15:24:21;3.28;;;0.30;;
71763;SDS011;59602;52.142;5.408;2022-12-29T15:26:50;6.97;;;0.73;;
71763;SDS011;59602;52.142;5.408;2022-12-29T15:29:33;5.68;;;0.30;;
71763;SDS011;59602;52.142;5.408;2022-12-29T15:32:15;4.00;;;0.43;;
71763;SDS011;59602;52.142;5.408;2022-12-29T15:34:45;4.22;;;0.20;;
71763;SDS011;59602;52.142;5.408;2022-12-29T15:37:19;6.40;;;0.30;;
71763;SDS011;59602;52.142;5.408;2022-12-29T15:39:49;4.97;;;0.20;;
71763;SDS011;59602;52.142;5.408;2022-12-29T15:42:23;4.80;;;0.30;;
71763;SDS011;59602;52.142;5.408;2022-12-29T15:45:06;5.88;;;0.63;;
71763;SDS011;59602;52.142;5.408;2022-12-29T15:47:37;5.78;;;0.30;;
71763;SDS011;59602;52.142;5.408;2022-12-29T15:50:08;4.03;;;0.30;;
71763;SDS011;59602;52.142;5.408;2022-12-29T15:52:45;5.40;;;0.40;;
71763;SDS011;59602;52.142;5.408;2022-12-29T15:55:20;4.22;;;0.28;;
71763;SDS011;59602;52.142;5.408;2022-12-29T15:57:51;2.40;;;0.30;;
71763;SDS011;59602;52.142;5.408;2022-12-29T16:00:25;5.18;;;0.30;;
71763;SDS011;59602;52.142;5.408;2022-12-29T16:02:53;4.20;;;0.30;;
71763;SDS011;59602;52.142;5.408;2022-12-29T16:05:21;4.07;;;0.33;;
71763;SDS011;59602;52.142;5.408;2022-12-29T16:07:52;5.88;;;0.40;;
71763;SDS011;59602;52.142;5.408;2022-12-29T16:10:27;3.00;;;0.20;;
71763;SDS011;59602;52.142;5.408;2022-12-29T16:13:13;4.68;;;0.20;;
71763;SDS011;59602;52.142;5.408;2022-12-29T16:15:46;3.67;;;0.40;;
71763;SDS011;59602;52.142;5.408;2022-12-29T16:18:20;3.83;;;0.20;;
71763;SDS011;59602;52.142;5.408;2022-12-29T16:20:52;2.42;;;0.40;;
71763;SDS011;59602;52.142;5.408;2022-12-29T16:23:30;5.32;;;0.20;;
71763;SDS011;59602;52.142;5.408;2022-12-29T16:25:58;3.92;;;0.30;;
71763;SDS011;59602;52.142;5.408;2022-12-29T16:28:34;2.88;;;0.20;;
71763;SDS011;59602;52.142;5.408;2022-12-29T16:31:21;5.63;;;0.37;;
71763;SDS011;59602;52.142;5.408;2022-12-29T16:34:22;3.22;;;0.28;;
71763;SDS011;59602;52.142;5.408;2022-12-29T16:36:53;4.18;;;0.30;;
71763;SDS011;59602;52.142;5.408;2022-12-29T16:39:25;3.13;;;0.30;;
71763;SDS011;59602;52.142;5.408;2022-12-29T16:41:57;4.13;;;0.20;;
71763;SDS011;59602;52.142;5.408;2022-12-29T16:44:26;6.30;;;0.50;;
71763;SDS011;59602;52.142;5.408;2022-12-29T16:46:57;3.95;;;0.25;;
71763;SDS011;59602;52.142;5.408;2022-12-29T16:49:47;3.53;;;0.30;;
71763;SDS011;59602;52.142;5.408;2022-12-29T16:52:19;2.63;;;0.10;;